createdAt,value
2022-07-27T00:00:20.568Z,1015.67
2022-07-27T00:01:20.685Z,1015.66
2022-07-27T00:02:20.543Z,1015.64
2022-07-27T00:03:20.539Z,1015.66
2022-07-27T00:04:20.776Z,1015.61
2022-07-27T00:05:20.488Z,1015.61
2022-07-27T00:06:20.477Z,1015.62
2022-07-27T00:07:20.448Z,1015.63
2022-07-27T00:08:20.631Z,1015.67
2022-07-27T00:09:20.412Z,1015.67
2022-07-27T00:10:20.394Z,1015.61
2022-07-27T00:11:20.373Z,1015.65
2022-07-27T00:12:20.390Z,1015.65
2022-07-27T00:13:20.344Z,1015.65
2022-07-27T00:14:20.338Z,1015.64
2022-07-27T00:15:20.300Z,1015.60
2022-07-27T00:16:20.342Z,1015.66
2022-07-27T00:17:20.267Z,1015.64
2022-07-27T00:18:20.256Z,1015.64
2022-07-27T00:19:20.257Z,1015.63
2022-07-27T00:20:20.206Z,1015.63
2022-07-27T00:21:20.192Z,1015.63
2022-07-27T00:22:20.173Z,1015.63
2022-07-27T00:23:20.154Z,1015.65
2022-07-27T00:24:20.137Z,1015.66
2022-07-27T00:25:20.138Z,1015.65
2022-07-27T00:26:20.127Z,1015.64
2022-07-27T00:27:20.102Z,1015.66
2022-07-27T00:28:20.107Z,1015.65
2022-07-27T00:29:20.045Z,1015.68
2022-07-27T00:30:20.033Z,1015.66
2022-07-27T00:31:20.133Z,1015.66
2022-07-27T00:32:19.995Z,1015.69
2022-07-27T00:33:19.976Z,1015.71
2022-07-27T00:34:19.957Z,1015.71
2022-07-27T00:35:19.947Z,1015.71
2022-07-27T00:36:19.950Z,1015.68
2022-07-27T00:37:19.903Z,1015.71
2022-07-27T00:38:19.889Z,1015.70
2022-07-27T00:39:19.871Z,1015.71
2022-07-27T00:40:19.937Z,1015.71
2022-07-27T00:41:19.859Z,1015.73
2022-07-27T00:42:19.817Z,1015.72
2022-07-27T00:43:19.795Z,1015.69
2022-07-27T00:44:19.774Z,1015.71
2022-07-27T00:45:19.756Z,1015.69
2022-07-27T00:46:19.778Z,1015.72
2022-07-27T00:47:19.738Z,1015.70
2022-07-27T00:48:19.703Z,1015.71
2022-07-27T00:49:19.748Z,1015.70
2022-07-27T00:50:19.675Z,1015.66
2022-07-27T00:51:19.679Z,1015.67
2022-07-27T00:52:19.665Z,1015.71
2022-07-27T00:53:19.618Z,1015.66
2022-07-27T00:54:19.598Z,1015.68
2022-07-27T00:55:19.583Z,1015.68
2022-07-27T00:56:19.557Z,1015.69
2022-07-27T00:57:19.560Z,1015.71
2022-07-27T00:58:19.532Z,1015.70
2022-07-27T00:59:19.506Z,1015.73
2022-07-27T01:00:19.487Z,1015.70
2022-07-27T01:01:19.535Z,1015.73
2022-07-27T01:02:20.055Z,1015.70
2022-07-27T01:03:19.467Z,1015.69
2022-07-27T01:04:19.434Z,1015.70
2022-07-27T01:05:19.465Z,1015.72
2022-07-27T01:06:26.735Z,1015.73
2022-07-27T01:07:19.366Z,1015.73
2022-07-27T01:08:19.372Z,1015.75
2022-07-27T01:09:19.351Z,1015.73
2022-07-27T01:10:19.384Z,1015.75
2022-07-27T01:11:19.292Z,1015.72
2022-07-27T01:12:19.275Z,1015.71
2022-07-27T01:13:19.293Z,1015.71
2022-07-27T01:14:19.237Z,1015.73
2022-07-27T01:15:19.313Z,1015.69
2022-07-27T01:16:19.224Z,1015.67
2022-07-27T01:17:19.191Z,1015.69
2022-07-27T01:18:19.166Z,1015.65
2022-07-27T01:19:19.165Z,1015.65
2022-07-27T01:20:19.124Z,1015.65
2022-07-27T01:21:19.111Z,1015.64
2022-07-27T01:22:19.089Z,1015.70
2022-07-27T01:23:19.076Z,1015.66
2022-07-27T01:24:19.074Z,1015.70
2022-07-27T01:25:19.056Z,1015.70
2022-07-27T01:26:19.023Z,1015.67
2022-07-27T01:27:19.000Z,1015.69
2022-07-27T01:28:18.983Z,1015.68
2022-07-27T01:29:18.965Z,1015.68
2022-07-27T01:30:18.945Z,1015.66
2022-07-27T01:31:19.016Z,1015.71
2022-07-27T01:32:18.910Z,1015.67
2022-07-27T01:33:18.892Z,1015.67
2022-07-27T01:34:18.892Z,1015.69
2022-07-27T01:35:18.856Z,1015.66
2022-07-27T01:36:18.836Z,1015.71
2022-07-27T01:37:18.820Z,1015.64
2022-07-27T01:38:18.817Z,1015.67
2022-07-27T01:39:18.784Z,1015.64
2022-07-27T01:40:18.780Z,1015.65
2022-07-27T01:41:18.763Z,1015.66
2022-07-27T01:42:18.727Z,1015.65
2022-07-27T01:43:18.717Z,1015.69
2022-07-27T01:44:18.689Z,1015.67
2022-07-27T01:45:18.678Z,1015.69
2022-07-27T01:46:18.700Z,1015.66
2022-07-27T01:47:18.677Z,1015.64
2022-07-27T01:48:18.634Z,1015.65
2022-07-27T01:49:18.684Z,1015.64
2022-07-27T01:50:18.592Z,1015.63
2022-07-27T01:51:18.568Z,1015.62
2022-07-27T01:52:18.575Z,1015.62
2022-07-27T01:53:18.540Z,1015.59
2022-07-27T01:54:18.510Z,1015.58
2022-07-27T01:55:18.490Z,1015.58
2022-07-27T01:56:18.492Z,1015.59
2022-07-27T01:57:18.455Z,1015.56
2022-07-27T01:58:18.456Z,1015.55
2022-07-27T01:59:18.415Z,1015.57
2022-07-27T02:00:18.399Z,1015.55
2022-07-27T02:01:18.425Z,1015.58
2022-07-27T02:02:18.363Z,1015.60
2022-07-27T02:03:18.339Z,1015.60
2022-07-27T02:04:18.328Z,1015.62
2022-07-27T02:05:18.372Z,1015.64
2022-07-27T02:06:18.288Z,1015.66
2022-07-27T02:07:18.290Z,1015.64
2022-07-27T02:08:18.252Z,1015.66
2022-07-27T02:09:18.251Z,1015.68
2022-07-27T02:10:18.220Z,1015.65
2022-07-27T02:11:18.196Z,1015.67
2022-07-27T02:12:18.179Z,1015.66
2022-07-27T02:13:22.877Z,1015.65
2022-07-27T02:14:18.144Z,1015.64
2022-07-27T02:15:18.120Z,1015.69
2022-07-27T02:16:18.162Z,1015.66
2022-07-27T02:17:18.826Z,1015.65
2022-07-27T02:18:33.318Z,1015.65
2022-07-27T02:19:18.306Z,1015.66
2022-07-27T02:20:18.034Z,1015.63
2022-07-27T02:21:18.010Z,1015.62
2022-07-27T02:22:17.994Z,1015.63
2022-07-27T02:23:17.996Z,1015.62
2022-07-27T02:24:17.975Z,1015.59
2022-07-27T02:25:17.954Z,1015.61
2022-07-27T02:26:17.919Z,1015.63
2022-07-27T02:27:17.909Z,1015.64
2022-07-27T02:28:17.883Z,1015.61
2022-07-27T02:29:17.879Z,1015.60
2022-07-27T02:30:18.015Z,1015.60
2022-07-27T02:31:17.850Z,1015.60
2022-07-27T02:32:17.806Z,1015.59
2022-07-27T02:33:17.811Z,1015.62
2022-07-27T02:34:17.762Z,1015.62
2022-07-27T02:35:18.516Z,1015.60
2022-07-27T02:36:17.746Z,1015.60
2022-07-27T02:37:17.714Z,1015.58
2022-07-27T02:38:17.717Z,1015.54
2022-07-27T02:39:17.674Z,1015.62
2022-07-27T02:40:17.999Z,1015.59
2022-07-27T02:41:17.670Z,1015.60
2022-07-27T02:42:17.622Z,1015.61
2022-07-27T02:43:17.606Z,1015.58
2022-07-27T02:44:17.598Z,1015.58
2022-07-27T02:45:17.569Z,1015.56
2022-07-27T02:46:17.596Z,1015.53
2022-07-27T02:47:17.552Z,1015.54
2022-07-27T02:48:17.529Z,1015.55
2022-07-27T02:49:17.529Z,1015.52
2022-07-27T02:50:17.468Z,1015.52
2022-07-27T02:51:17.447Z,1015.55
2022-07-27T02:52:17.426Z,1015.54
2022-07-27T02:53:17.421Z,1015.55
2022-07-27T02:54:17.405Z,1015.57
2022-07-27T02:55:17.371Z,1015.57
2022-07-27T02:56:17.355Z,1015.61
2022-07-27T02:57:17.329Z,1015.61
2022-07-27T02:58:17.316Z,1015.64
2022-07-27T02:59:17.315Z,1015.66
2022-07-27T03:00:17.275Z,1015.63
2022-07-27T03:01:17.311Z,1015.65
2022-07-27T03:02:17.254Z,1015.63
2022-07-27T03:03:17.222Z,1015.61
2022-07-27T03:04:17.257Z,1015.60
2022-07-27T03:05:17.202Z,1015.60
2022-07-27T03:06:17.162Z,1015.62
2022-07-27T03:07:17.163Z,1015.59
2022-07-27T03:08:17.125Z,1015.59
2022-07-27T03:09:17.107Z,1015.57
2022-07-27T03:10:17.106Z,1015.62
2022-07-27T03:11:17.072Z,1015.62
2022-07-27T03:12:17.052Z,1015.62
2022-07-27T03:13:17.053Z,1015.67
2022-07-27T03:14:17.015Z,1015.66
2022-07-27T03:15:16.995Z,1015.67
2022-07-27T03:16:17.014Z,1015.68
2022-07-27T03:17:16.972Z,1015.67
2022-07-27T03:18:16.943Z,1015.67
2022-07-27T03:19:16.937Z,1015.67
2022-07-27T03:20:16.898Z,1015.67
2022-07-27T03:21:16.897Z,1015.70
2022-07-27T03:22:16.860Z,1015.68
2022-07-27T03:23:16.842Z,1015.66
2022-07-27T03:24:16.830Z,1015.68
2022-07-27T03:25:16.802Z,1015.67
2022-07-27T03:26:16.786Z,1015.74
2022-07-27T03:27:16.789Z,1015.73
2022-07-27T03:28:16.747Z,1015.75
2022-07-27T03:29:16.725Z,1015.76
2022-07-27T03:30:16.710Z,1015.73
2022-07-27T03:31:16.772Z,1015.72
2022-07-27T03:32:16.673Z,1015.71
2022-07-27T03:33:16.672Z,1015.76
2022-07-27T03:34:16.637Z,1015.73
2022-07-27T03:35:16.611Z,1015.73
2022-07-27T03:36:16.587Z,1015.73
2022-07-27T03:37:16.573Z,1015.70
2022-07-27T03:38:16.573Z,1015.70
2022-07-27T03:39:16.557Z,1015.73
2022-07-27T03:40:16.510Z,1015.72
2022-07-27T03:41:16.494Z,1015.77
2022-07-27T03:42:16.475Z,1015.75
2022-07-27T03:43:16.479Z,1015.81
2022-07-27T03:44:16.439Z,1015.83
2022-07-27T03:45:16.436Z,1015.86
2022-07-27T03:46:16.457Z,1015.87
2022-07-27T03:47:16.383Z,1015.84
2022-07-27T03:48:16.357Z,1015.83
2022-07-27T03:49:16.703Z,1015.84
2022-07-27T03:50:16.334Z,1015.81
2022-07-27T03:51:16.303Z,1015.84
2022-07-27T03:52:18.004Z,1015.82
2022-07-27T03:53:16.264Z,1015.85
2022-07-27T03:54:16.256Z,1015.84
2022-07-27T03:55:16.242Z,1015.86
2022-07-27T03:56:16.207Z,1015.82
2022-07-27T03:57:16.188Z,1015.84
2022-07-27T03:58:16.178Z,1015.81
2022-07-27T03:59:16.267Z,1015.79
2022-07-27T04:00:16.164Z,1015.80
2022-07-27T04:01:16.186Z,1015.78
2022-07-27T04:02:16.183Z,1015.82
2022-07-27T04:03:16.074Z,1015.86
2022-07-27T04:04:16.053Z,1015.85
2022-07-27T04:05:16.053Z,1015.88
2022-07-27T04:06:16.012Z,1015.88
2022-07-27T04:07:15.999Z,1015.87
2022-07-27T04:08:15.974Z,1015.90
2022-07-27T04:09:16.281Z,1015.90
2022-07-27T04:10:15.943Z,1015.91
2022-07-27T04:11:15.931Z,1015.94
2022-07-27T04:13:58.337Z,1015.93
2022-07-27T04:14:58.308Z,1016.00
2022-07-27T04:15:58.312Z,1015.96
2022-07-27T04:16:58.345Z,1015.98
2022-07-27T04:17:58.356Z,1015.97
2022-07-27T04:18:58.240Z,1015.99
2022-07-27T04:19:58.214Z,1016.02
2022-07-27T04:20:58.197Z,1016.04
2022-07-27T04:21:58.194Z,1016.05
2022-07-27T04:22:58.171Z,1016.03
2022-07-27T04:23:58.157Z,1016.03
2022-07-27T04:24:58.125Z,1016.05
2022-07-27T04:25:58.133Z,1016.08
2022-07-27T04:26:58.103Z,1016.11
2022-07-27T04:27:58.081Z,1016.14
2022-07-27T04:28:58.048Z,1016.15
2022-07-27T04:29:58.023Z,1016.15
2022-07-27T04:30:58.077Z,1016.17
2022-07-27T04:31:57.984Z,1016.15
2022-07-27T04:32:57.968Z,1016.16
2022-07-27T04:33:57.966Z,1016.14
2022-07-27T04:34:57.929Z,1016.15
2022-07-27T04:35:57.909Z,1016.12
2022-07-27T04:36:57.888Z,1016.09
2022-07-27T04:37:59.809Z,1016.09
2022-07-27T04:38:57.863Z,1016.14
2022-07-27T04:39:57.836Z,1016.12
2022-07-27T04:40:58.458Z,1016.10
2022-07-27T04:41:57.793Z,1016.08
2022-07-27T04:42:57.769Z,1016.09
2022-07-27T04:43:57.771Z,1016.10
2022-07-27T04:44:57.733Z,1016.09
2022-07-27T04:45:57.772Z,1016.12
2022-07-27T04:46:57.693Z,1016.15
2022-07-27T04:47:57.680Z,1016.15
2022-07-27T04:48:57.717Z,1016.14
2022-07-27T04:49:57.666Z,1016.14
2022-07-27T04:50:57.622Z,1016.10
2022-07-27T04:51:57.598Z,1016.11
2022-07-27T04:52:57.583Z,1016.11
2022-07-27T04:53:58.445Z,1016.12
2022-07-27T04:54:57.582Z,1016.08
2022-07-27T04:55:57.544Z,1016.10
2022-07-27T04:56:57.517Z,1016.05
2022-07-27T04:57:57.487Z,1016.08
2022-07-27T04:58:57.468Z,1016.10
2022-07-27T04:59:57.464Z,1016.06
2022-07-27T05:00:57.501Z,1016.13
2022-07-27T05:01:57.409Z,1016.13
2022-07-27T05:02:57.395Z,1016.13
2022-07-27T05:03:57.415Z,1016.17
2022-07-27T05:04:57.375Z,1016.16
2022-07-27T05:05:57.338Z,1016.15
2022-07-27T05:06:57.320Z,1016.15
2022-07-27T05:07:57.297Z,1016.16
2022-07-27T05:08:57.283Z,1016.16
2022-07-27T05:09:57.265Z,1016.18
2022-07-27T05:10:57.263Z,1016.21
2022-07-27T05:11:57.251Z,1016.20
2022-07-27T05:12:57.212Z,1016.21
2022-07-27T05:13:57.184Z,1016.20
2022-07-27T05:14:57.181Z,1016.24
2022-07-27T05:15:57.146Z,1016.22
2022-07-27T05:16:57.188Z,1016.23
2022-07-27T05:17:57.113Z,1016.24
2022-07-27T05:18:57.140Z,1016.23
2022-07-27T05:19:57.075Z,1016.23
2022-07-27T05:20:57.061Z,1016.26
2022-07-27T05:21:57.035Z,1016.22
2022-07-27T05:22:57.037Z,1016.21
2022-07-27T05:23:57.005Z,1016.20
2022-07-27T05:24:56.990Z,1016.22
2022-07-27T05:25:56.964Z,1016.24
2022-07-27T05:26:56.944Z,1016.25
2022-07-27T05:27:56.945Z,1016.27
2022-07-27T05:28:56.901Z,1016.23
2022-07-27T05:29:56.889Z,1016.24
2022-07-27T05:30:56.870Z,1016.28
2022-07-27T05:31:56.964Z,1016.24
2022-07-27T05:32:56.860Z,1016.28
2022-07-27T05:33:58.287Z,1016.29
2022-07-27T05:34:56.791Z,1016.29
2022-07-27T05:35:56.773Z,1016.27
2022-07-27T05:36:56.751Z,1016.32
2022-07-27T05:37:56.784Z,1016.34
2022-07-27T05:38:56.794Z,1016.36
2022-07-27T05:39:56.806Z,1016.41
2022-07-27T05:40:56.678Z,1016.43
2022-07-27T05:41:56.664Z,1016.47
2022-07-27T05:42:56.661Z,1016.45
2022-07-27T05:43:56.625Z,1016.46
2022-07-27T05:44:56.620Z,1016.45
2022-07-27T05:45:56.660Z,1016.47
2022-07-27T05:46:56.564Z,1016.45
2022-07-27T05:47:56.548Z,1016.52
2022-07-27T05:48:56.601Z,1016.49
2022-07-27T05:49:56.511Z,1016.51
2022-07-27T05:50:56.524Z,1016.52
2022-07-27T05:51:56.483Z,1016.53
2022-07-27T05:52:56.484Z,1016.49
2022-07-27T05:53:56.436Z,1016.48
2022-07-27T05:54:56.418Z,1016.50
2022-07-27T05:56:08.921Z,1016.47
2022-07-27T05:57:17.411Z,1016.50
2022-07-27T05:57:56.363Z,1016.49
2022-07-27T05:58:56.355Z,1016.53
2022-07-27T05:59:56.331Z,1016.52
2022-07-27T06:00:56.398Z,1016.54
2022-07-27T06:01:56.285Z,1016.51
2022-07-27T06:02:56.286Z,1016.52
2022-07-27T06:03:56.286Z,1016.51
2022-07-27T06:04:56.239Z,1016.53
2022-07-27T06:05:56.213Z,1016.50
2022-07-27T06:06:56.195Z,1016.53
2022-07-27T06:07:56.177Z,1016.52
2022-07-27T06:08:56.179Z,1016.50
2022-07-27T06:09:56.137Z,1016.53
2022-07-27T06:10:56.141Z,1016.53
2022-07-27T06:11:56.148Z,1016.53
2022-07-27T06:12:56.157Z,1016.54
2022-07-27T06:13:56.108Z,1016.55
2022-07-27T06:14:56.172Z,1016.56
2022-07-27T06:15:56.035Z,1016.54
2022-07-27T06:16:56.090Z,1016.54
2022-07-27T06:17:55.990Z,1016.55
2022-07-27T06:18:55.970Z,1016.58
2022-07-27T06:19:55.987Z,1016.57
2022-07-27T06:20:55.932Z,1016.57
2022-07-27T06:21:55.913Z,1016.55
2022-07-27T06:22:55.896Z,1016.53
2022-07-27T06:23:55.898Z,1016.55
2022-07-27T06:24:55.883Z,1016.58
2022-07-27T06:25:55.841Z,1016.50
2022-07-27T06:26:55.822Z,1016.56
2022-07-27T06:27:55.804Z,1016.58
2022-07-27T06:28:55.784Z,1016.58
2022-07-27T06:29:55.795Z,1016.54
2022-07-27T06:30:55.766Z,1016.58
2022-07-27T06:31:55.821Z,1016.55
2022-07-27T06:32:55.720Z,1016.58
2022-07-27T06:33:55.714Z,1016.57
2022-07-27T06:34:55.698Z,1016.54
2022-07-27T06:35:55.657Z,1016.55
2022-07-27T06:36:55.634Z,1016.60
2022-07-27T06:37:55.643Z,1016.60
2022-07-27T06:38:55.599Z,1016.60
2022-07-27T06:39:55.581Z,1016.58
2022-07-27T06:40:55.584Z,1016.61
2022-07-27T06:41:58.251Z,1016.58
2022-07-27T06:42:55.527Z,1016.57
2022-07-27T06:43:55.508Z,1016.54
2022-07-27T06:44:55.517Z,1016.52
2022-07-27T06:45:55.476Z,1016.53
2022-07-27T06:46:55.516Z,1016.53
2022-07-27T06:47:55.466Z,1016.51
2022-07-27T06:48:55.476Z,1016.51
2022-07-27T06:49:55.399Z,1016.52
2022-07-27T06:50:55.389Z,1016.53
2022-07-27T06:51:55.360Z,1016.54
2022-07-27T06:52:55.345Z,1016.57
2022-07-27T06:53:55.346Z,1016.54
2022-07-27T06:54:55.328Z,1016.53
2022-07-27T06:55:55.760Z,1016.52
2022-07-27T06:56:55.267Z,1016.49
2022-07-27T06:57:55.282Z,1016.54
2022-07-27T06:58:55.233Z,1016.51
2022-07-27T06:59:55.217Z,1016.53
2022-07-27T07:00:55.241Z,1016.52
2022-07-27T07:01:55.186Z,1016.54
2022-07-27T07:02:55.174Z,1016.52
2022-07-27T07:03:55.228Z,1016.54
2022-07-27T07:04:55.125Z,1016.53
2022-07-27T07:05:55.137Z,1016.54
2022-07-27T07:06:55.090Z,1016.58
2022-07-27T07:07:55.074Z,1016.56
2022-07-27T07:08:55.057Z,1016.60
2022-07-27T07:09:55.037Z,1016.61
2022-07-27T07:10:55.037Z,1016.61
2022-07-27T07:11:55.019Z,1016.62
2022-07-27T07:12:54.982Z,1016.64
2022-07-27T07:13:54.970Z,1016.65
2022-07-27T07:14:54.950Z,1016.65
2022-07-27T07:15:54.971Z,1016.63
2022-07-27T07:16:54.915Z,1016.60
2022-07-27T07:17:54.932Z,1016.67
2022-07-27T07:18:54.903Z,1016.67
2022-07-27T07:19:54.864Z,1016.64
2022-07-27T07:20:54.863Z,1016.67
2022-07-27T07:21:54.821Z,1016.66
2022-07-27T07:22:54.804Z,1016.68
2022-07-27T07:23:54.802Z,1016.65
2022-07-27T07:24:58.154Z,1016.63
2022-07-27T07:25:54.751Z,1016.67
2022-07-27T07:26:54.735Z,1016.69
2022-07-27T07:27:54.722Z,1016.68
2022-07-27T07:28:54.721Z,1016.68
2022-07-27T07:29:54.700Z,1016.71
2022-07-27T07:30:54.669Z,1016.73
2022-07-27T07:31:54.722Z,1016.75
2022-07-27T07:32:54.636Z,1016.73
2022-07-27T07:33:54.610Z,1016.71
2022-07-27T07:34:54.623Z,1016.70
2022-07-27T07:36:12.889Z,1016.70
2022-07-27T07:36:54.560Z,1016.66
2022-07-27T07:37:54.538Z,1016.70
2022-07-27T07:38:54.526Z,1016.67
2022-07-27T07:39:54.502Z,1016.71
2022-07-27T07:40:54.506Z,1016.71
2022-07-27T07:41:54.477Z,1016.68
2022-07-27T07:42:54.451Z,1016.68
2022-07-27T07:43:54.433Z,1016.69
2022-07-27T07:44:54.436Z,1016.75
2022-07-27T07:45:54.395Z,1016.75
2022-07-27T07:46:54.459Z,1016.77
2022-07-27T07:47:54.418Z,1016.78
2022-07-27T07:48:54.393Z,1016.74
2022-07-27T07:49:54.356Z,1016.71
2022-07-27T07:50:54.332Z,1016.70
2022-07-27T07:51:54.314Z,1016.68
2022-07-27T07:52:54.290Z,1016.70
2022-07-27T07:53:54.268Z,1016.65
2022-07-27T07:54:54.247Z,1016.71
2022-07-27T07:55:54.246Z,1016.71
2022-07-27T07:56:54.213Z,1016.69
2022-07-27T07:57:54.192Z,1016.74
2022-07-27T07:58:54.174Z,1016.71
2022-07-27T07:59:54.172Z,1016.72
2022-07-27T08:00:54.158Z,1016.71
2022-07-27T08:01:54.236Z,1016.73
2022-07-27T08:02:54.167Z,1016.74
2022-07-27T08:03:54.087Z,1016.71
2022-07-27T08:04:54.070Z,1016.72
2022-07-27T08:05:54.072Z,1016.67
2022-07-27T08:06:54.035Z,1016.71
2022-07-27T08:07:54.016Z,1016.72
2022-07-27T08:08:54.000Z,1016.76
2022-07-27T08:09:53.987Z,1016.70
2022-07-27T08:10:54.011Z,1016.68
2022-07-27T08:11:53.948Z,1016.74
2022-07-27T08:12:53.931Z,1016.72
2022-07-27T08:13:53.914Z,1016.75
2022-07-27T08:14:53.897Z,1016.75
2022-07-27T08:15:53.983Z,1016.77
2022-07-27T08:16:53.880Z,1016.74
2022-07-27T08:17:53.873Z,1016.71
2022-07-27T08:18:53.835Z,1016.74
2022-07-27T08:19:53.819Z,1016.72
2022-07-27T08:20:53.802Z,1016.74
2022-07-27T08:21:53.801Z,1016.73
2022-07-27T08:22:53.765Z,1016.74
2022-07-27T08:23:53.746Z,1016.73
2022-07-27T08:24:53.731Z,1016.74
2022-07-27T08:25:53.719Z,1016.73
2022-07-27T08:26:53.706Z,1016.73
2022-07-27T08:27:55.506Z,1016.73
2022-07-27T08:28:53.663Z,1016.72
2022-07-27T08:29:53.644Z,1016.76
2022-07-27T08:30:53.761Z,1016.75
2022-07-27T08:31:53.736Z,1016.77
2022-07-27T08:32:53.599Z,1016.78
2022-07-27T08:33:53.593Z,1016.79
2022-07-27T08:34:53.561Z,1016.77
2022-07-27T08:35:53.557Z,1016.79
2022-07-27T08:36:53.538Z,1016.80
2022-07-27T08:37:53.506Z,1016.76
2022-07-27T08:38:53.498Z,1016.74
2022-07-27T08:40:38.167Z,1016.74
2022-07-27T08:40:53.460Z,1016.77
2022-07-27T08:41:53.446Z,1016.74
2022-07-27T08:42:53.430Z,1016.72
2022-07-27T08:43:53.405Z,1016.77
2022-07-27T08:44:53.395Z,1016.76
2022-07-27T08:45:53.390Z,1016.79
2022-07-27T08:46:53.393Z,1016.83
2022-07-27T08:47:53.339Z,1016.81
2022-07-27T08:48:53.390Z,1016.78
2022-07-27T08:49:53.378Z,1016.77
2022-07-27T08:50:53.295Z,1016.77
2022-07-27T08:51:53.275Z,1016.77
2022-07-27T08:52:53.274Z,1016.81
2022-07-27T08:53:54.129Z,1016.80
2022-07-27T08:54:53.248Z,1016.85
2022-07-27T08:55:53.243Z,1016.89
2022-07-27T08:56:53.196Z,1016.86
2022-07-27T08:57:53.177Z,1016.85
2022-07-27T08:58:53.158Z,1016.86
2022-07-27T08:59:53.146Z,1016.82
2022-07-27T09:00:53.158Z,1016.80
2022-07-27T09:01:53.135Z,1016.81
2022-07-27T09:02:53.221Z,1016.82
2022-07-27T09:03:53.075Z,1016.84
2022-07-27T09:04:53.076Z,1016.84
2022-07-27T09:05:53.068Z,1016.81
2022-07-27T09:06:54.387Z,1016.83
2022-07-27T09:07:53.022Z,1016.83
2022-07-27T09:08:53.431Z,1016.86
2022-07-27T09:09:52.978Z,1016.79
2022-07-27T09:10:52.955Z,1016.78
2022-07-27T09:11:52.960Z,1016.79
2022-07-27T09:12:52.940Z,1016.83
2022-07-27T09:13:52.913Z,1016.85
2022-07-27T09:14:53.406Z,1016.86
2022-07-27T09:16:16.877Z,1016.87
2022-07-27T09:17:45.804Z,1016.86
2022-07-27T09:17:52.903Z,1016.87
2022-07-27T09:18:52.828Z,1016.84
2022-07-27T09:19:52.810Z,1016.84
2022-07-27T09:20:52.806Z,1016.87
2022-07-27T09:21:52.778Z,1016.90
2022-07-27T09:22:52.782Z,1016.92
2022-07-27T09:23:52.749Z,1016.88
2022-07-27T09:24:52.729Z,1016.87
2022-07-27T09:26:03.704Z,1016.84
2022-07-27T09:26:52.693Z,1016.86
2022-07-27T09:27:52.691Z,1016.83
2022-07-27T09:28:52.662Z,1016.81
2022-07-27T09:29:52.649Z,1016.81
2022-07-27T09:30:52.658Z,1016.85
2022-07-27T09:31:52.679Z,1016.83
2022-07-27T09:32:53.050Z,1016.81
2022-07-27T09:33:52.592Z,1016.83
2022-07-27T09:34:52.572Z,1016.78
2022-07-27T09:35:52.541Z,1016.79
2022-07-27T09:36:52.551Z,1016.78
2022-07-27T09:37:52.511Z,1016.79
2022-07-27T09:38:55.240Z,1016.84
2022-07-27T09:39:52.480Z,1016.81
2022-07-27T09:40:52.472Z,1016.81
2022-07-27T09:41:52.487Z,1016.80
2022-07-27T09:43:14.604Z,1016.80
2022-07-27T09:44:30.094Z,1016.81
2022-07-27T09:44:54.940Z,1016.76
2022-07-27T09:45:52.387Z,1016.75
2022-07-27T09:46:52.400Z,1016.78
2022-07-27T09:47:52.351Z,1016.79
2022-07-27T09:48:52.399Z,1016.80
2022-07-27T09:50:00.475Z,1016.77
2022-07-27T09:51:02.373Z,1016.83
2022-07-27T09:52:00.003Z,1016.81
2022-07-27T09:52:53.987Z,1016.81
2022-07-27T09:53:52.272Z,1016.82
2022-07-27T09:54:52.240Z,1016.83
2022-07-27T09:55:57.125Z,1016.84
2022-07-27T09:56:52.206Z,1016.83
2022-07-27T09:57:52.210Z,1016.78
2022-07-27T09:58:52.210Z,1016.80
2022-07-27T09:59:52.160Z,1016.77
2022-07-27T10:00:52.166Z,1016.74
2022-07-27T10:01:54.732Z,1016.76
2022-07-27T10:02:52.113Z,1016.75
2022-07-27T10:03:52.091Z,1016.73
2022-07-27T10:04:52.164Z,1016.75
2022-07-27T10:05:52.061Z,1016.78
2022-07-27T10:07:03.287Z,1016.77
2022-07-27T10:07:52.043Z,1016.82
2022-07-27T10:08:52.033Z,1016.86
2022-07-27T10:09:52.017Z,1016.81
2022-07-27T10:10:51.986Z,1016.81
2022-07-27T10:11:51.971Z,1016.85
2022-07-27T10:12:54.984Z,1016.84
2022-07-27T10:13:52.518Z,1016.86
2022-07-27T10:14:51.923Z,1016.88
2022-07-27T10:15:51.936Z,1016.91
2022-07-27T10:16:51.883Z,1016.87
2022-07-27T10:17:51.924Z,1016.89
2022-07-27T10:18:55.588Z,1016.93
2022-07-27T10:19:51.832Z,1016.92
2022-07-27T10:20:51.818Z,1017.04
2022-07-27T10:21:51.799Z,1017.06
2022-07-27T10:22:51.780Z,1017.03
2022-07-27T10:23:51.840Z,1017.03
2022-07-27T10:24:53.310Z,1017.02
2022-07-27T10:25:51.742Z,1017.03
2022-07-27T10:26:51.737Z,1017.10
2022-07-27T10:27:51.722Z,1017.06
2022-07-27T10:28:51.694Z,1017.04
2022-07-27T10:29:51.707Z,1017.16
2022-07-27T10:30:54.553Z,1017.13
2022-07-27T10:31:51.650Z,1017.09
2022-07-27T10:32:51.644Z,1016.99
2022-07-27T10:33:51.659Z,1017.09
2022-07-27T10:34:51.612Z,1016.95
2022-07-27T10:35:51.609Z,1016.93
2022-07-27T10:36:51.586Z,1016.95
2022-07-27T10:37:51.575Z,1016.91
2022-07-27T10:38:51.565Z,1016.94
2022-07-27T10:39:51.568Z,1016.93
2022-07-27T10:40:51.535Z,1017.00
2022-07-27T10:41:51.540Z,1016.94
2022-07-27T10:42:54.718Z,1016.97
2022-07-27T10:43:51.494Z,1016.94
2022-07-27T10:44:51.505Z,1016.92
2022-07-27T10:46:01.906Z,1016.89
2022-07-27T10:46:51.526Z,1016.89
2022-07-27T10:47:51.439Z,1016.87
2022-07-27T10:48:51.505Z,1016.84
2022-07-27T10:49:51.419Z,1016.85
2022-07-27T10:50:51.424Z,1016.89
2022-07-27T10:51:51.403Z,1016.82
2022-07-27T10:52:51.367Z,1016.82
2022-07-27T10:54:18.338Z,1016.82
2022-07-27T10:54:56.718Z,1016.81
2022-07-27T10:55:51.326Z,1016.79
2022-07-27T10:56:51.334Z,1016.75
2022-07-27T10:57:51.294Z,1016.78
2022-07-27T10:58:51.290Z,1016.81
2022-07-27T11:00:08.023Z,1016.84
2022-07-27T11:00:55.098Z,1016.83
2022-07-27T11:01:51.283Z,1016.81
2022-07-27T11:02:51.241Z,1016.81
2022-07-27T11:03:51.313Z,1016.81
2022-07-27T11:04:51.232Z,1016.84
2022-07-27T11:06:00.342Z,1016.81
2022-07-27T11:07:22.940Z,1016.80
2022-07-27T11:08:13.712Z,1016.84
2022-07-27T11:09:17.120Z,1016.84
2022-07-27T11:10:06.572Z,1016.82
2022-07-27T11:10:51.119Z,1016.78
2022-07-27T11:11:51.110Z,1016.79
2022-07-27T11:12:51.084Z,1016.80
2022-07-27T11:13:51.067Z,1016.77
2022-07-27T11:14:51.056Z,1016.76
2022-07-27T11:15:55.864Z,1016.75
2022-07-27T11:16:56.591Z,1016.76
2022-07-27T11:18:03.385Z,1016.77
2022-07-27T11:18:53.130Z,1016.74
2022-07-27T11:19:50.995Z,1016.70
2022-07-27T11:20:50.989Z,1016.70
2022-07-27T11:21:51.008Z,1016.56
2022-07-27T11:23:34.275Z,1016.52
2022-07-27T11:23:51.803Z,1016.52
2022-07-27T11:24:50.940Z,1016.50
2022-07-27T11:25:50.934Z,1016.42
2022-07-27T11:26:50.947Z,1016.46
2022-07-27T11:27:50.921Z,1016.47
2022-07-27T11:28:50.896Z,1016.46
2022-07-27T11:29:50.895Z,1016.47
2022-07-27T11:30:50.924Z,1016.48
2022-07-27T11:31:58.717Z,1016.48
2022-07-27T11:32:50.871Z,1016.46
2022-07-27T11:33:50.831Z,1016.42
2022-07-27T11:34:50.818Z,1016.45
2022-07-27T11:35:50.800Z,1016.45
2022-07-27T11:36:50.794Z,1016.45
2022-07-27T11:37:50.778Z,1016.49
2022-07-27T11:38:50.778Z,1016.49
2022-07-27T11:40:37.052Z,1016.51
2022-07-27T11:40:57.923Z,1016.49
2022-07-27T11:42:08.800Z,1016.48
2022-07-27T11:42:50.707Z,1016.47
2022-07-27T11:43:50.719Z,1016.48
2022-07-27T11:44:51.099Z,1016.49
2022-07-27T11:45:50.745Z,1016.44
2022-07-27T11:46:50.656Z,1016.43
2022-07-27T11:47:50.642Z,1016.42
2022-07-27T11:49:05.966Z,1016.45
2022-07-27T11:49:50.647Z,1016.48
2022-07-27T11:50:50.594Z,1016.45
2022-07-27T11:51:50.582Z,1016.46
2022-07-27T11:52:50.566Z,1016.46
2022-07-27T11:53:50.547Z,1016.42
2022-07-27T11:54:50.552Z,1016.38
2022-07-27T11:55:50.533Z,1016.34
2022-07-27T11:56:50.512Z,1016.42
2022-07-27T11:57:50.496Z,1016.34
2022-07-27T11:58:50.489Z,1016.39
2022-07-27T11:59:50.487Z,1016.45
2022-07-27T12:00:50.452Z,1016.40
2022-07-27T12:01:50.440Z,1016.76
2022-07-27T12:02:50.531Z,1016.46
2022-07-27T12:03:50.407Z,1016.81
2022-07-27T12:04:50.516Z,1016.69
2022-07-27T12:05:50.386Z,1016.53
2022-07-27T12:06:50.391Z,1016.42